Departure
Upland-Cable Airport
Upland, US
cloud Weather
- Wind
- 0° / 0 kt
- Visibility
- 10 SM
- Ceiling
- CLR
- Temp / Dew
- 21°C / 12°C
- Altimeter
- 29.97 inHg
Obs: 2026-09-01T07:15:00.000Z
Raw METAR
METAR KCCB 010715Z AUTO 00000KT 10SM CLR 21/12 A2997 RMK AO2
route Route
Departure
Upland, US
Obs: 2026-09-01T07:15:00.000Z
METAR KCCB 010715Z AUTO 00000KT 10SM CLR 21/12 A2997 RMK AO2
Arrival
La Verne, US
| Date | Flight | Aircraft | Takeoff | Landing | Duration | Arr Δ |
|---|---|---|---|---|---|---|
| 2026-07-25 | N49060 | A6135B | Jul 25, 16:50 UTC | Jul 25, 18:00 UTC | 1h 10m | - |
| 2026-07-16 | N9387V | AD06C2 | Jul 16, 22:05 UTC | Jul 16, 22:40 UTC | 35m | - |
| 2026-07-15 | N967MS | AD774B | Jul 15, 21:15 UTC | Jul 15, 22:00 UTC | 45m | - |
| 2026-07-13 | CXK1110 | A3431A | Jul 13, 18:15 UTC | Jul 13, 19:00 UTC | 45m | - |
| 2026-07-11 | N5407F | A6DB3F | Jul 11, 22:45 UTC | Jul 11, 23:45 UTC | 1h 0m | - |
| 2026-07-10 | N7526G | AA24A8 | Jul 10, 17:20 UTC | Jul 10, 17:35 UTC | 15m | - |
| 2026-07-07 | N9387V | AD06C2 | Jul 7, 21:55 UTC | Jul 7, 22:35 UTC | 40m | - |
| 2026-07-06 | N53797 | A6CE21 | Jul 6, 15:45 UTC | Jul 6, 16:40 UTC | 55m | - |
| 2026-07-04 | N4900L | A6127B | Jul 4, 16:45 UTC | Jul 4, 17:05 UTC | 20m | - |
| 2026-06-30 | N5955V | A7B315 | Jun 30, 20:10 UTC | Jun 30, 21:15 UTC | 1h 5m | - |
| 2026-06-22 | N53797 | A6CE21 | Jun 22, 16:24 UTC | Jun 22, 16:54 UTC | 30m | - |
| 2026-06-14 | N8439T | AB8EA3 | Jun 14, 01:00 UTC | Jun 14, 02:15 UTC | 1h 15m | - |
| 2026-06-05 | N5407F | A6DB3F | Jun 5, 23:45 UTC | Jun 6, 00:35 UTC | 50m | - |
| 2026-06-04 | N967MS | AD774B | Jun 4, 23:10 UTC | Jun 4, 23:45 UTC | 35m | - |
| 2026-06-03 | N5283M | A6A973 | Jun 3, 20:35 UTC | Jun 3, 20:45 UTC | 10m | - |
| 2026-06-03 | N5955V | A7B315 | Jun 3, 00:15 UTC | Jun 3, 01:00 UTC | 45m | - |
| 2026-05-30 | N42371 | A50A2B | May 30, 19:30 UTC | May 30, 19:40 UTC | 10m | - |
| 2026-05-23 | N42371 | A50A2B | May 23, 22:05 UTC | May 23, 22:15 UTC | 10m | - |
| 2026-05-22 | N960MS | AD5D4A | May 22, 01:15 UTC | May 22, 02:25 UTC | 1h 10m | - |
| 2026-05-20 | N964MS | AD6C26 | May 20, 00:25 UTC | May 20, 00:55 UTC | 30m | - |
| 2026-05-15 | N946MS | AD2496 | May 15, 19:30 UTC | May 15, 19:40 UTC | 10m | - |
| 2026-05-05 | N960MS | AD5D4A | May 5, 19:10 UTC | May 5, 19:20 UTC | 10m | - |
| 2026-05-03 | N5407F | A6DB3F | May 3, 02:10 UTC | May 3, 02:20 UTC | 10m | - |
| 2026-05-01 | N816CT | AB1FEA | May 1, 22:10 UTC | May 2, 00:35 UTC | 2h 25m | - |
| 2026-04-25 | N9542H | AD4629 | Apr 25, 21:25 UTC | Apr 25, 21:55 UTC | 30m | - |
| 2026-04-23 | N5407F | A6DB3F | Apr 23, 19:05 UTC | Apr 23, 19:15 UTC | 10m | - |
| 2026-04-18 | N7526G | AA24A8 | Apr 18, 15:55 UTC | Apr 18, 16:15 UTC | 20m | - |
| 2026-04-18 | N960MS | AD5D4A | Apr 18, 00:00 UTC | Apr 18, 00:10 UTC | 10m | - |
| 2026-04-17 | N7526G | AA24A8 | Apr 17, 20:10 UTC | Apr 17, 21:20 UTC | 1h 10m | - |
| 2026-04-15 | N5407F | A6DB3F | Apr 15, 22:05 UTC | Apr 15, 22:15 UTC | 10m | - |
| 2026-04-15 | N5407F | A6DB3F | Apr 15, 02:55 UTC | Apr 15, 03:35 UTC | 40m | - |